sensor_id;sensor_type;location;lat;lon;timestamp;temperature;humidity
21108;DHT22;10712;52.944;9.098;2024-01-11T00:00:35;-6.40;86.20
21108;DHT22;10712;52.944;9.098;2024-01-11T00:03:01;-6.40;86.50
21108;DHT22;10712;52.944;9.098;2024-01-11T00:05:27;-6.30;87.00
21108;DHT22;10712;52.944;9.098;2024-01-11T00:07:53;-6.30;87.10
21108;DHT22;10712;52.944;9.098;2024-01-11T00:10:19;-6.20;87.10
21108;DHT22;10712;52.944;9.098;2024-01-11T00:12:45;-6.20;87.20
21108;DHT22;10712;52.944;9.098;2024-01-11T00:15:13;-6.10;87.00
21108;DHT22;10712;52.944;9.098;2024-01-11T00:17:38;-6.10;86.70
21108;DHT22;10712;52.944;9.098;2024-01-11T00:20:05;-6.10;86.20
21108;DHT22;10712;52.944;9.098;2024-01-11T00:22:31;-6.20;86.20
21108;DHT22;10712;52.944;9.098;2024-01-11T00:24:57;-6.20;86.30
21108;DHT22;10712;52.944;9.098;2024-01-11T00:27:23;-6.20;85.90
21108;DHT22;10712;52.944;9.098;2024-01-11T00:29:49;-6.30;86.10
21108;DHT22;10712;52.944;9.098;2024-01-11T00:32:15;-6.20;86.50
21108;DHT22;10712;52.944;9.098;2024-01-11T00:34:40;-6.20;86.80
21108;DHT22;10712;52.944;9.098;2024-01-11T00:37:06;-6.20;86.60
21108;DHT22;10712;52.944;9.098;2024-01-11T00:39:32;-6.20;86.80
21108;DHT22;10712;52.944;9.098;2024-01-11T00:41:58;-6.20;87.10
21108;DHT22;10712;52.944;9.098;2024-01-11T00:44:24;-6.20;87.50
21108;DHT22;10712;52.944;9.098;2024-01-11T00:46:49;-6.20;87.70
21108;DHT22;10712;52.944;9.098;2024-01-11T00:49:15;-6.10;87.80
21108;DHT22;10712;52.944;9.098;2024-01-11T00:51:41;-6.10;88.10
21108;DHT22;10712;52.944;9.098;2024-01-11T00:54:07;-6.10;88.10
21108;DHT22;10712;52.944;9.098;2024-01-11T00:56:32;-6.10;87.80
21108;DHT22;10712;52.944;9.098;2024-01-11T00:58:58;-6.10;87.70
21108;DHT22;10712;52.944;9.098;2024-01-11T01:01:24;-6.10;87.80
21108;DHT22;10712;52.944;9.098;2024-01-11T01:03:50;-6.10;88.10
21108;DHT22;10712;52.944;9.098;2024-01-11T01:06:15;-6.10;88.30
21108;DHT22;10712;52.944;9.098;2024-01-11T01:08:41;-6.00;88.60
21108;DHT22;10712;52.944;9.098;2024-01-11T01:11:07;-6.00;88.30
21108;DHT22;10712;52.944;9.098;2024-01-11T01:13:33;-6.00;88.40
21108;DHT22;10712;52.944;9.098;2024-01-11T01:15:58;-6.10;88.00
21108;DHT22;10712;52.944;9.098;2024-01-11T01:18:24;-6.20;87.80
21108;DHT22;10712;52.944;9.098;2024-01-11T01:20:50;-6.20;88.20
21108;DHT22;10712;52.944;9.098;2024-01-11T01:23:16;-6.20;88.60
21108;DHT22;10712;52.944;9.098;2024-01-11T01:25:43;-6.20;88.90
21108;DHT22;10712;52.944;9.098;2024-01-11T01:28:09;-6.20;89.00
21108;DHT22;10712;52.944;9.098;2024-01-11T01:30:35;-6.20;89.20
21108;DHT22;10712;52.944;9.098;2024-01-11T01:33:02;-6.20;89.30
21108;DHT22;10712;52.944;9.098;2024-01-11T01:35:28;-6.20;89.50
21108;DHT22;10712;52.944;9.098;2024-01-11T01:37:53;-6.20;89.70
21108;DHT22;10712;52.944;9.098;2024-01-11T01:40:19;-6.20;89.80
21108;DHT22;10712;52.944;9.098;2024-01-11T01:42:45;-6.20;90.00
21108;DHT22;10712;52.944;9.098;2024-01-11T01:45:12;-6.20;90.10
21108;DHT22;10712;52.944;9.098;2024-01-11T01:47:40;-6.20;90.20
21108;DHT22;10712;52.944;9.098;2024-01-11T01:50:10;-6.20;90.30
21108;DHT22;10712;52.944;9.098;2024-01-11T01:52:36;-6.20;90.40
21108;DHT22;10712;52.944;9.098;2024-01-11T01:55:06;-6.20;90.60
21108;DHT22;10712;52.944;9.098;2024-01-11T01:57:35;-6.20;90.70
21108;DHT22;10712;52.944;9.098;2024-01-11T02:00:02;-6.10;91.00
21108;DHT22;10712;52.944;9.098;2024-01-11T02:02:38;-6.10;91.20
21108;DHT22;10712;52.944;9.098;2024-01-11T02:05:07;-6.10;91.10
21108;DHT22;10712;52.944;9.098;2024-01-11T02:07:33;-6.00;91.10
21108;DHT22;10712;52.944;9.098;2024-01-11T02:09:59;-5.90;91.20
21108;DHT22;10712;52.944;9.098;2024-01-11T02:12:25;-5.90;91.40
21108;DHT22;10712;52.944;9.098;2024-01-11T02:14:53;-5.90;91.20
21108;DHT22;10712;52.944;9.098;2024-01-11T02:17:19;-5.90;90.90
21108;DHT22;10712;52.944;9.098;2024-01-11T02:19:46;-5.90;90.90
21108;DHT22;10712;52.944;9.098;2024-01-11T02:22:24;-6.00;91.00
21108;DHT22;10712;52.944;9.098;2024-01-11T02:24:54;-6.00;91.20
21108;DHT22;10712;52.944;9.098;2024-01-11T02:27:21;-5.90;91.50
21108;DHT22;10712;52.944;9.098;2024-01-11T02:29:47;-5.90;91.50
21108;DHT22;10712;52.944;9.098;2024-01-11T02:32:12;-5.90;91.30
21108;DHT22;10712;52.944;9.098;2024-01-11T02:34:39;-5.90;91.20
21108;DHT22;10712;52.944;9.098;2024-01-11T02:37:05;-5.90;91.50
21108;DHT22;10712;52.944;9.098;2024-01-11T02:39:32;-5.90;91.70
21108;DHT22;10712;52.944;9.098;2024-01-11T02:41:59;-5.90;91.80
21108;DHT22;10712;52.944;9.098;2024-01-11T02:44:25;-5.80;91.80
21108;DHT22;10712;52.944;9.098;2024-01-11T02:46:51;-5.80;91.70
21108;DHT22;10712;52.944;9.098;2024-01-11T02:49:17;-5.80;91.70
21108;DHT22;10712;52.944;9.098;2024-01-11T02:51:43;-5.80;91.70
21108;DHT22;10712;52.944;9.098;2024-01-11T02:54:09;-5.80;91.80
21108;DHT22;10712;52.944;9.098;2024-01-11T02:56:34;-5.80;91.90
21108;DHT22;10712;52.944;9.098;2024-01-11T02:59:00;-5.80;92.10
21108;DHT22;10712;52.944;9.098;2024-01-11T03:01:26;-5.80;92.00
21108;DHT22;10712;52.944;9.098;2024-01-11T03:03:52;-5.70;91.90
21108;DHT22;10712;52.944;9.098;2024-01-11T03:06:18;-5.80;91.90
21108;DHT22;10712;52.944;9.098;2024-01-11T03:08:48;-5.80;91.90
21108;DHT22;10712;52.944;9.098;2024-01-11T03:11:14;-5.80;92.00
21108;DHT22;10712;52.944;9.098;2024-01-11T03:13:40;-5.80;92.00
21108;DHT22;10712;52.944;9.098;2024-01-11T03:16:06;-5.70;92.10
21108;DHT22;10712;52.944;9.098;2024-01-11T03:18:32;-5.70;92.30
21108;DHT22;10712;52.944;9.098;2024-01-11T03:20:57;-5.70;92.30
21108;DHT22;10712;52.944;9.098;2024-01-11T03:23:23;-5.70;92.10
21108;DHT22;10712;52.944;9.098;2024-01-11T03:25:49;-5.70;92.10
21108;DHT22;10712;52.944;9.098;2024-01-11T03:28:15;-5.70;92.10
21108;DHT22;10712;52.944;9.098;2024-01-11T03:30:41;-5.70;92.00
21108;DHT22;10712;52.944;9.098;2024-01-11T03:33:07;-5.70;92.00
21108;DHT22;10712;52.944;9.098;2024-01-11T03:35:32;-5.70;92.00
21108;DHT22;10712;52.944;9.098;2024-01-11T03:37:58;-5.70;91.90
21108;DHT22;10712;52.944;9.098;2024-01-11T03:40:24;-5.80;91.70
21108;DHT22;10712;52.944;9.098;2024-01-11T03:42:50;-5.80;91.60
21108;DHT22;10712;52.944;9.098;2024-01-11T03:45:18;-5.90;91.70
21108;DHT22;10712;52.944;9.098;2024-01-11T03:47:47;-6.00;91.40
21108;DHT22;10712;52.944;9.098;2024-01-11T03:50:12;-6.00;91.50
21108;DHT22;10712;52.944;9.098;2024-01-11T03:52:39;-6.00;91.90
21108;DHT22;10712;52.944;9.098;2024-01-11T03:55:05;-6.00;92.10
21108;DHT22;10712;52.944;9.098;2024-01-11T03:57:31;-6.00;92.00
21108;DHT22;10712;52.944;9.098;2024-01-11T03:59:57;-6.00;92.10
21108;DHT22;10712;52.944;9.098;2024-01-11T04:02:24;-6.00;92.30
21108;DHT22;10712;52.944;9.098;2024-01-11T04:04:50;-6.00;92.50
21108;DHT22;10712;52.944;9.098;2024-01-11T04:07:16;-5.90;92.60
21108;DHT22;10712;52.944;9.098;2024-01-11T04:09:42;-5.90;92.60
21108;DHT22;10712;52.944;9.098;2024-01-11T04:12:08;-5.80;92.60
21108;DHT22;10712;52.944;9.098;2024-01-11T04:14:38;-5.80;92.60
21108;DHT22;10712;52.944;9.098;2024-01-11T04:17:05;-5.80;92.50
21108;DHT22;10712;52.944;9.098;2024-01-11T04:19:31;-5.80;92.50
21108;DHT22;10712;52.944;9.098;2024-01-11T04:21:57;-5.80;92.50
21108;DHT22;10712;52.944;9.098;2024-01-11T04:24:22;-5.80;92.50
21108;DHT22;10712;52.944;9.098;2024-01-11T04:26:48;-5.80;92.50
21108;DHT22;10712;52.944;9.098;2024-01-11T04:29:14;-5.80;92.60
21108;DHT22;10712;52.944;9.098;2024-01-11T04:31:40;-5.80;92.70
21108;DHT22;10712;52.944;9.098;2024-01-11T04:34:05;-5.80;93.00
21108;DHT22;10712;52.944;9.098;2024-01-11T04:36:31;-5.80;93.20
21108;DHT22;10712;52.944;9.098;2024-01-11T04:38:57;-5.80;93.40
21108;DHT22;10712;52.944;9.098;2024-01-11T04:41:23;-5.70;93.50
21108;DHT22;10712;52.944;9.098;2024-01-11T04:43:48;-5.70;93.40
21108;DHT22;10712;52.944;9.098;2024-01-11T04:46:17;-5.80;93.30
21108;DHT22;10712;52.944;9.098;2024-01-11T04:48:47;-5.80;93.40
21108;DHT22;10712;52.944;9.098;2024-01-11T04:51:15;-5.80;93.50
21108;DHT22;10712;52.944;9.098;2024-01-11T04:53:43;-5.70;93.80
21108;DHT22;10712;52.944;9.098;2024-01-11T04:56:14;-5.70;94.10
21108;DHT22;10712;52.944;9.098;2024-01-11T04:58:42;-5.70;94.20
21108;DHT22;10712;52.944;9.098;2024-01-11T05:01:15;-5.60;94.20
21108;DHT22;10712;52.944;9.098;2024-01-11T05:03:46;-5.60;94.30
21108;DHT22;10712;52.944;9.098;2024-01-11T05:06:20;-5.60;94.30
21108;DHT22;10712;52.944;9.098;2024-01-11T05:08:48;-5.50;94.30
21108;DHT22;10712;52.944;9.098;2024-01-11T05:11:23;-5.50;94.30
21108;DHT22;10712;52.944;9.098;2024-01-11T05:13:51;-5.40;94.30
21108;DHT22;10712;52.944;9.098;2024-01-11T05:16:21;-5.40;94.30
21108;DHT22;10712;52.944;9.098;2024-01-11T05:18:52;-5.30;94.30
21108;DHT22;10712;52.944;9.098;2024-01-11T05:21:19;-5.30;94.30
21108;DHT22;10712;52.944;9.098;2024-01-11T05:23:45;-5.30;94.20
21108;DHT22;10712;52.944;9.098;2024-01-11T05:26:14;-5.30;93.90
21108;DHT22;10712;52.944;9.098;2024-01-11T05:28:40;-5.30;93.90
21108;DHT22;10712;52.944;9.098;2024-01-11T05:31:10;-5.30;94.00
21108;DHT22;10712;52.944;9.098;2024-01-11T05:33:38;-5.20;94.00
21108;DHT22;10712;52.944;9.098;2024-01-11T05:36:05;-5.20;93.80
21108;DHT22;10712;52.944;9.098;2024-01-11T05:38:31;-5.20;93.80
21108;DHT22;10712;52.944;9.098;2024-01-11T05:40:57;-5.20;93.70
21108;DHT22;10712;52.944;9.098;2024-01-11T05:43:23;-5.20;93.70
21108;DHT22;10712;52.944;9.098;2024-01-11T05:45:50;-5.10;93.80
21108;DHT22;10712;52.944;9.098;2024-01-11T05:48:16;-5.10;93.80
21108;DHT22;10712;52.944;9.098;2024-01-11T05:50:43;-5.00;93.80
21108;DHT22;10712;52.944;9.098;2024-01-11T05:53:10;-5.00;93.70
21108;DHT22;10712;52.944;9.098;2024-01-11T05:55:37;-4.90;93.70
21108;DHT22;10712;52.944;9.098;2024-01-11T05:58:03;-4.90;93.60
21108;DHT22;10712;52.944;9.098;2024-01-11T06:00:29;-4.90;93.40
21108;DHT22;10712;52.944;9.098;2024-01-11T06:02:55;-4.90;93.20
21108;DHT22;10712;52.944;9.098;2024-01-11T06:05:21;-4.80;93.20
21108;DHT22;10712;52.944;9.098;2024-01-11T06:07:47;-4.80;93.00
21108;DHT22;10712;52.944;9.098;2024-01-11T06:10:14;-4.80;93.00
21108;DHT22;10712;52.944;9.098;2024-01-11T06:12:40;-4.80;93.00
21108;DHT22;10712;52.944;9.098;2024-01-11T06:15:07;-4.80;92.80
21108;DHT22;10712;52.944;9.098;2024-01-11T06:17:33;-4.80;92.60
21108;DHT22;10712;52.944;9.098;2024-01-11T06:19:59;-4.80;92.50
21108;DHT22;10712;52.944;9.098;2024-01-11T06:22:25;-4.70;92.50
21108;DHT22;10712;52.944;9.098;2024-01-11T06:24:50;-4.70;92.30
21108;DHT22;10712;52.944;9.098;2024-01-11T06:27:16;-4.70;92.30
21108;DHT22;10712;52.944;9.098;2024-01-11T06:29:42;-4.70;92.30
21108;DHT22;10712;52.944;9.098;2024-01-11T06:32:08;-4.70;92.50
21108;DHT22;10712;52.944;9.098;2024-01-11T06:34:35;-4.60;92.60
21108;DHT22;10712;52.944;9.098;2024-01-11T06:37:01;-4.60;92.60
21108;DHT22;10712;52.944;9.098;2024-01-11T06:39:28;-4.60;92.40
21108;DHT22;10712;52.944;9.098;2024-01-11T06:41:55;-4.60;92.60
21108;DHT22;10712;52.944;9.098;2024-01-11T06:44:21;-4.60;92.60
21108;DHT22;10712;52.944;9.098;2024-01-11T06:46:47;-4.60;92.50
21108;DHT22;10712;52.944;9.098;2024-01-11T06:49:12;-4.60;92.60
21108;DHT22;10712;52.944;9.098;2024-01-11T06:51:38;-4.60;92.70
21108;DHT22;10712;52.944;9.098;2024-01-11T06:54:04;-4.50;92.80
21108;DHT22;10712;52.944;9.098;2024-01-11T06:56:30;-4.50;92.80
21108;DHT22;10712;52.944;9.098;2024-01-11T06:58:56;-4.50;92.70
21108;DHT22;10712;52.944;9.098;2024-01-11T07:01:22;-4.40;92.80
21108;DHT22;10712;52.944;9.098;2024-01-11T07:03:48;-4.40;92.80
21108;DHT22;10712;52.944;9.098;2024-01-11T07:06:15;-4.40;92.80
21108;DHT22;10712;52.944;9.098;2024-01-11T07:08:41;-4.40;92.90
21108;DHT22;10712;52.944;9.098;2024-01-11T07:11:07;-4.30;93.00
21108;DHT22;10712;52.944;9.098;2024-01-11T07:13:33;-4.30;93.00
21108;DHT22;10712;52.944;9.098;2024-01-11T07:15:59;-4.30;93.10
21108;DHT22;10712;52.944;9.098;2024-01-11T07:18:25;-4.30;93.10
21108;DHT22;10712;52.944;9.098;2024-01-11T07:20:52;-4.20;93.10
21108;DHT22;10712;52.944;9.098;2024-01-11T07:23:18;-4.20;93.10
21108;DHT22;10712;52.944;9.098;2024-01-11T07:25:44;-4.20;93.10
21108;DHT22;10712;52.944;9.098;2024-01-11T07:28:10;-4.20;93.20
21108;DHT22;10712;52.944;9.098;2024-01-11T07:30:36;-4.20;93.20
21108;DHT22;10712;52.944;9.098;2024-01-11T07:33:02;-4.20;93.30
21108;DHT22;10712;52.944;9.098;2024-01-11T07:35:30;-4.10;93.40
21108;DHT22;10712;52.944;9.098;2024-01-11T07:37:56;-4.10;93.50
21108;DHT22;10712;52.944;9.098;2024-01-11T07:40:22;-4.10;93.40
21108;DHT22;10712;52.944;9.098;2024-01-11T07:42:47;-4.10;93.30
21108;DHT22;10712;52.944;9.098;2024-01-11T07:45:13;-4.10;93.30
21108;DHT22;10712;52.944;9.098;2024-01-11T07:47:39;-4.00;93.30
21108;DHT22;10712;52.944;9.098;2024-01-11T07:50:09;-4.00;93.40
21108;DHT22;10712;52.944;9.098;2024-01-11T07:52:38;-4.00;93.40
21108;DHT22;10712;52.944;9.098;2024-01-11T07:55:07;-4.00;93.50
21108;DHT22;10712;52.944;9.098;2024-01-11T07:57:36;-4.00;93.60
21108;DHT22;10712;52.944;9.098;2024-01-11T08:00:03;-4.00;93.70
21108;DHT22;10712;52.944;9.098;2024-01-11T08:02:38;-4.00;93.80
21108;DHT22;10712;52.944;9.098;2024-01-11T08:05:04;-3.90;93.90
21108;DHT22;10712;52.944;9.098;2024-01-11T08:07:30;-3.90;93.90
21108;DHT22;10712;52.944;9.098;2024-01-11T08:09:56;-3.90;93.90
21108;DHT22;10712;52.944;9.098;2024-01-11T08:12:22;-3.90;94.00
21108;DHT22;10712;52.944;9.098;2024-01-11T08:14:48;-3.90;93.90
21108;DHT22;10712;52.944;9.098;2024-01-11T08:17:14;-3.80;94.00
21108;DHT22;10712;52.944;9.098;2024-01-11T08:19:41;-3.80;94.10
21108;DHT22;10712;52.944;9.098;2024-01-11T08:22:10;-3.80;94.20
21108;DHT22;10712;52.944;9.098;2024-01-11T08:24:37;-3.80;94.10
21108;DHT22;10712;52.944;9.098;2024-01-11T08:27:03;-3.70;94.20
21108;DHT22;10712;52.944;9.098;2024-01-11T08:29:30;-3.70;94.20
21108;DHT22;10712;52.944;9.098;2024-01-11T08:31:56;-3.70;94.30
21108;DHT22;10712;52.944;9.098;2024-01-11T08:34:22;-3.60;94.30
21108;DHT22;10712;52.944;9.098;2024-01-11T08:36:48;-3.60;94.30
21108;DHT22;10712;52.944;9.098;2024-01-11T08:39:14;-3.50;94.30
21108;DHT22;10712;52.944;9.098;2024-01-11T08:41:40;-3.50;94.30
21108;DHT22;10712;52.944;9.098;2024-01-11T08:44:06;-3.50;94.30
21108;DHT22;10712;52.944;9.098;2024-01-11T08:46:33;-3.50;94.30
21108;DHT22;10712;52.944;9.098;2024-01-11T08:49:00;-3.50;94.30
21108;DHT22;10712;52.944;9.098;2024-01-11T08:51:31;-3.50;94.30
21108;DHT22;10712;52.944;9.098;2024-01-11T08:53:58;-3.40;94.30
21108;DHT22;10712;52.944;9.098;2024-01-11T08:56:24;-3.40;94.30
21108;DHT22;10712;52.944;9.098;2024-01-11T08:58:49;-3.30;94.30
21108;DHT22;10712;52.944;9.098;2024-01-11T09:01:15;-3.30;94.30
21108;DHT22;10712;52.944;9.098;2024-01-11T09:03:41;-3.30;94.30
21108;DHT22;10712;52.944;9.098;2024-01-11T09:06:07;-3.30;94.30
21108;DHT22;10712;52.944;9.098;2024-01-11T09:08:33;-3.20;94.30
21108;DHT22;10712;52.944;9.098;2024-01-11T09:11:00;-3.20;94.30
21108;DHT22;10712;52.944;9.098;2024-01-11T09:13:26;-3.20;94.30
21108;DHT22;10712;52.944;9.098;2024-01-11T09:15:53;-3.10;94.30
21108;DHT22;10712;52.944;9.098;2024-01-11T09:18:19;-3.10;94.30
21108;DHT22;10712;52.944;9.098;2024-01-11T09:20:46;-3.10;94.30
21108;DHT22;10712;52.944;9.098;2024-01-11T09:23:13;-3.10;94.30
21108;DHT22;10712;52.944;9.098;2024-01-11T09:25:39;-3.00;94.30
21108;DHT22;10712;52.944;9.098;2024-01-11T09:28:05;-3.00;94.30
21108;DHT22;10712;52.944;9.098;2024-01-11T09:30:31;-3.00;94.30
21108;DHT22;10712;52.944;9.098;2024-01-11T09:32:57;-2.90;94.30
21108;DHT22;10712;52.944;9.098;2024-01-11T09:35:23;-2.90;94.30
21108;DHT22;10712;52.944;9.098;2024-01-11T09:37:50;-2.90;94.30
21108;DHT22;10712;52.944;9.098;2024-01-11T09:40:17;-2.80;94.30
21108;DHT22;10712;52.944;9.098;2024-01-11T09:42:44;-2.80;94.30
21108;DHT22;10712;52.944;9.098;2024-01-11T09:45:13;-2.80;94.30
21108;DHT22;10712;52.944;9.098;2024-01-11T09:47:44;-2.70;94.30
21108;DHT22;10712;52.944;9.098;2024-01-11T09:50:11;-2.70;94.30
21108;DHT22;10712;52.944;9.098;2024-01-11T09:52:48;-2.60;94.30
21108;DHT22;10712;52.944;9.098;2024-01-11T09:55:15;-2.60;94.30
21108;DHT22;10712;52.944;9.098;2024-01-11T09:57:46;-2.60;94.30
21108;DHT22;10712;52.944;9.098;2024-01-11T10:00:22;-2.60;94.30
21108;DHT22;10712;52.944;9.098;2024-01-11T10:02:49;-2.50;94.30
21108;DHT22;10712;52.944;9.098;2024-01-11T10:05:18;-2.50;94.30
21108;DHT22;10712;52.944;9.098;2024-01-11T10:07:44;-2.50;94.30
21108;DHT22;10712;52.944;9.098;2024-01-11T10:10:11;-2.50;94.30
21108;DHT22;10712;52.944;9.098;2024-01-11T10:12:40;-2.40;94.30
21108;DHT22;10712;52.944;9.098;2024-01-11T10:15:08;-2.40;94.30
21108;DHT22;10712;52.944;9.098;2024-01-11T10:17:42;-2.40;94.30
21108;DHT22;10712;52.944;9.098;2024-01-11T10:20:12;-2.30;94.30
21108;DHT22;10712;52.944;9.098;2024-01-11T10:22:43;-2.30;94.30
21108;DHT22;10712;52.944;9.098;2024-01-11T10:25:12;-2.20;94.30
21108;DHT22;10712;52.944;9.098;2024-01-11T10:27:45;-2.20;94.30
21108;DHT22;10712;52.944;9.098;2024-01-11T10:30:15;-2.20;94.30
21108;DHT22;10712;52.944;9.098;2024-01-11T10:32:46;-2.10;94.30
21108;DHT22;10712;52.944;9.098;2024-01-11T10:35:13;-2.00;94.30
21108;DHT22;10712;52.944;9.098;2024-01-11T10:37:39;-2.00;94.30
21108;DHT22;10712;52.944;9.098;2024-01-11T10:40:06;-2.00;94.30
21108;DHT22;10712;52.944;9.098;2024-01-11T10:42:45;-1.90;94.30
21108;DHT22;10712;52.944;9.098;2024-01-11T10:45:16;-1.90;94.30
21108;DHT22;10712;52.944;9.098;2024-01-11T10:47:55;-1.90;94.30
21108;DHT22;10712;52.944;9.098;2024-01-11T10:50:25;-1.90;94.30
21108;DHT22;10712;52.944;9.098;2024-01-11T10:55:32;-1.80;94.30
21108;DHT22;10712;52.944;9.098;2024-01-11T10:58:00;-1.80;94.30
21108;DHT22;10712;52.944;9.098;2024-01-11T11:00:28;-1.70;94.30
21108;DHT22;10712;52.944;9.098;2024-01-11T11:02:55;-1.70;94.30
21108;DHT22;10712;52.944;9.098;2024-01-11T11:05:24;-1.70;94.30
21108;DHT22;10712;52.944;9.098;2024-01-11T11:07:51;-1.60;94.30
21108;DHT22;10712;52.944;9.098;2024-01-11T11:10:21;-1.60;94.30
21108;DHT22;10712;52.944;9.098;2024-01-11T11:12:54;-1.60;94.30
21108;DHT22;10712;52.944;9.098;2024-01-11T11:15:28;-1.60;94.30
21108;DHT22;10712;52.944;9.098;2024-01-11T11:17:55;-1.50;94.30
21108;DHT22;10712;52.944;9.098;2024-01-11T11:20:23;-1.50;94.30
21108;DHT22;10712;52.944;9.098;2024-01-11T11:23:03;-1.50;94.30
21108;DHT22;10712;52.944;9.098;2024-01-11T11:25:30;-1.50;94.30
21108;DHT22;10712;52.944;9.098;2024-01-11T11:27:58;-1.40;94.30
21108;DHT22;10712;52.944;9.098;2024-01-11T11:30:33;-1.40;94.30
21108;DHT22;10712;52.944;9.098;2024-01-11T11:33:16;-1.40;94.30
21108;DHT22;10712;52.944;9.098;2024-01-11T11:35:46;-1.40;94.30
21108;DHT22;10712;52.944;9.098;2024-01-11T11:38:21;-1.40;94.30
21108;DHT22;10712;52.944;9.098;2024-01-11T11:40:50;-1.30;94.30
21108;DHT22;10712;52.944;9.098;2024-01-11T11:43:17;-1.30;94.30
21108;DHT22;10712;52.944;9.098;2024-01-11T11:45:45;-1.30;94.30
21108;DHT22;10712;52.944;9.098;2024-01-11T11:51:16;-1.20;94.30
21108;DHT22;10712;52.944;9.098;2024-01-11T11:53:47;-1.20;94.30
21108;DHT22;10712;52.944;9.098;2024-01-11T11:56:18;-1.20;94.30
21108;DHT22;10712;52.944;9.098;2024-01-11T11:58:48;-1.20;94.30
21108;DHT22;10712;52.944;9.098;2024-01-11T12:01:20;-1.20;94.30
21108;DHT22;10712;52.944;9.098;2024-01-11T12:03:47;-1.20;94.30
21108;DHT22;10712;52.944;9.098;2024-01-11T12:06:20;-1.10;94.30
21108;DHT22;10712;52.944;9.098;2024-01-11T12:08:49;-1.10;94.30
21108;DHT22;10712;52.944;9.098;2024-01-11T12:11:19;-1.10;94.30
21108;DHT22;10712;52.944;9.098;2024-01-11T12:13:47;-1.10;94.30
21108;DHT22;10712;52.944;9.098;2024-01-11T12:16:14;-1.10;94.30
21108;DHT22;10712;52.944;9.098;2024-01-11T12:18:40;-1.10;94.30
21108;DHT22;10712;52.944;9.098;2024-01-11T12:21:10;-1.10;94.30
21108;DHT22;10712;52.944;9.098;2024-01-11T12:23:38;-1.00;94.30
21108;DHT22;10712;52.944;9.098;2024-01-11T12:26:07;-1.00;94.30
21108;DHT22;10712;52.944;9.098;2024-01-11T12:28:39;-1.00;94.30
21108;DHT22;10712;52.944;9.098;2024-01-11T12:31:05;-0.90;94.30
21108;DHT22;10712;52.944;9.098;2024-01-11T12:33:32;-0.90;94.30
21108;DHT22;10712;52.944;9.098;2024-01-11T12:36:00;-0.90;94.30
21108;DHT22;10712;52.944;9.098;2024-01-11T12:38:27;-0.90;94.30
21108;DHT22;10712;52.944;9.098;2024-01-11T12:40:53;-0.90;94.30
21108;DHT22;10712;52.944;9.098;2024-01-11T12:43:19;-0.90;94.30
21108;DHT22;10712;52.944;9.098;2024-01-11T12:45:45;-0.80;94.30
21108;DHT22;10712;52.944;9.098;2024-01-11T12:48:11;-0.80;94.30
21108;DHT22;10712;52.944;9.098;2024-01-11T12:50:40;-0.80;94.30
21108;DHT22;10712;52.944;9.098;2024-01-11T12:53:07;-0.80;94.30
21108;DHT22;10712;52.944;9.098;2024-01-11T12:56:01;-0.80;94.30
21108;DHT22;10712;52.944;9.098;2024-01-11T12:58:28;-0.70;94.30
21108;DHT22;10712;52.944;9.098;2024-01-11T13:00:54;-0.70;94.30
21108;DHT22;10712;52.944;9.098;2024-01-11T13:03:20;-0.70;94.30
21108;DHT22;10712;52.944;9.098;2024-01-11T13:05:46;-0.70;94.30
21108;DHT22;10712;52.944;9.098;2024-01-11T13:08:12;-0.70;94.30
21108;DHT22;10712;52.944;9.098;2024-01-11T13:10:38;-0.70;94.30
21108;DHT22;10712;52.944;9.098;2024-01-11T13:13:04;-0.60;94.30
21108;DHT22;10712;52.944;9.098;2024-01-11T13:15:33;-0.60;94.30
21108;DHT22;10712;52.944;9.098;2024-01-11T13:18:02;-0.60;94.30
21108;DHT22;10712;52.944;9.098;2024-01-11T13:20:28;-0.60;94.30
21108;DHT22;10712;52.944;9.098;2024-01-11T13:23:14;-0.60;94.30
21108;DHT22;10712;52.944;9.098;2024-01-11T13:25:42;-0.60;94.30
21108;DHT22;10712;52.944;9.098;2024-01-11T13:28:09;-0.50;94.30
21108;DHT22;10712;52.944;9.098;2024-01-11T13:30:40;-0.50;94.30
21108;DHT22;10712;52.944;9.098;2024-01-11T13:33:08;-0.50;94.30
21108;DHT22;10712;52.944;9.098;2024-01-11T13:35:35;-0.50;94.30
21108;DHT22;10712;52.944;9.098;2024-01-11T13:38:03;-0.50;94.30
21108;DHT22;10712;52.944;9.098;2024-01-11T13:40:30;-0.40;94.30
21108;DHT22;10712;52.944;9.098;2024-01-11T13:42:57;-0.40;94.30
21108;DHT22;10712;52.944;9.098;2024-01-11T13:45:26;-0.40;94.30
21108;DHT22;10712;52.944;9.098;2024-01-11T13:47:53;-0.40;94.30
21108;DHT22;10712;52.944;9.098;2024-01-11T13:50:23;-0.40;94.30
21108;DHT22;10712;52.944;9.098;2024-01-11T13:52:52;-0.30;94.30
21108;DHT22;10712;52.944;9.098;2024-01-11T13:55:18;-0.30;94.30
21108;DHT22;10712;52.944;9.098;2024-01-11T13:57:47;-0.30;94.30
21108;DHT22;10712;52.944;9.098;2024-01-11T14:00:14;-0.30;94.30
21108;DHT22;10712;52.944;9.098;2024-01-11T14:02:40;-0.30;94.30
21108;DHT22;10712;52.944;9.098;2024-01-11T14:05:07;-0.30;94.30
21108;DHT22;10712;52.944;9.098;2024-01-11T14:07:38;-0.20;94.30
21108;DHT22;10712;52.944;9.098;2024-01-11T14:10:06;-0.20;94.30
21108;DHT22;10712;52.944;9.098;2024-01-11T14:12:34;-0.20;94.30
21108;DHT22;10712;52.944;9.098;2024-01-11T14:15:05;-0.20;94.30
21108;DHT22;10712;52.944;9.098;2024-01-11T14:17:33;-0.20;94.30
21108;DHT22;10712;52.944;9.098;2024-01-11T14:20:02;-0.20;94.30
21108;DHT22;10712;52.944;9.098;2024-01-11T14:22:28;-0.10;94.30
21108;DHT22;10712;52.944;9.098;2024-01-11T14:24:54;-0.10;94.30
21108;DHT22;10712;52.944;9.098;2024-01-11T14:27:20;-0.10;94.30
21108;DHT22;10712;52.944;9.098;2024-01-11T14:29:47;-0.10;94.30
21108;DHT22;10712;52.944;9.098;2024-01-11T14:32:14;-0.10;94.30
21108;DHT22;10712;52.944;9.098;2024-01-11T14:34:42;-0.10;94.30
21108;DHT22;10712;52.944;9.098;2024-01-11T14:37:14;-0.10;94.30
21108;DHT22;10712;52.944;9.098;2024-01-11T14:39:40;-0.10;94.30
21108;DHT22;10712;52.944;9.098;2024-01-11T14:42:06;-0.10;94.30
21108;DHT22;10712;52.944;9.098;2024-01-11T14:44:35;-0.10;94.30
21108;DHT22;10712;52.944;9.098;2024-01-11T14:47:02;-0.10;94.30
21108;DHT22;10712;52.944;9.098;2024-01-11T14:49:28;-0.10;94.30
21108;DHT22;10712;52.944;9.098;2024-01-11T14:51:54;-0.10;94.30
21108;DHT22;10712;52.944;9.098;2024-01-11T14:54:20;-0.10;94.30
21108;DHT22;10712;52.944;9.098;2024-01-11T14:56:47;0.00;94.30
21108;DHT22;10712;52.944;9.098;2024-01-11T14:59:13;0.00;94.30
21108;DHT22;10712;52.944;9.098;2024-01-11T15:01:39;0.00;94.30
21108;DHT22;10712;52.944;9.098;2024-01-11T15:04:05;0.00;94.30
21108;DHT22;10712;52.944;9.098;2024-01-11T15:06:31;0.00;94.30
21108;DHT22;10712;52.944;9.098;2024-01-11T15:08:57;0.00;94.30
21108;DHT22;10712;52.944;9.098;2024-01-11T15:11:22;0.00;94.30
21108;DHT22;10712;52.944;9.098;2024-01-11T15:13:48;0.00;94.30
21108;DHT22;10712;52.944;9.098;2024-01-11T15:16:14;0.00;94.30
21108;DHT22;10712;52.944;9.098;2024-01-11T15:18:40;0.10;94.30
21108;DHT22;10712;52.944;9.098;2024-01-11T15:21:05;0.10;94.30
21108;DHT22;10712;52.944;9.098;2024-01-11T15:23:31;0.10;94.30
21108;DHT22;10712;52.944;9.098;2024-01-11T15:25:57;0.10;94.30
21108;DHT22;10712;52.944;9.098;2024-01-11T15:28:23;0.10;94.30
21108;DHT22;10712;52.944;9.098;2024-01-11T15:30:49;0.10;94.30
21108;DHT22;10712;52.944;9.098;2024-01-11T15:33:15;0.10;94.30
21108;DHT22;10712;52.944;9.098;2024-01-11T15:35:41;0.10;94.30
21108;DHT22;10712;52.944;9.098;2024-01-11T15:38:07;0.10;94.30